createdAt,value
2023-09-18T00:00:27.193Z,1020.46
2023-09-18T00:02:54.112Z,1020.47
2023-09-18T00:05:21.039Z,1020.48
2023-09-18T00:07:47.840Z,1020.73
2023-09-18T00:10:14.824Z,1020.59
2023-09-18T00:12:41.833Z,1020.51
2023-09-18T00:15:11.365Z,1020.45
2023-09-18T00:17:38.213Z,1020.41
2023-09-18T00:20:07.675Z,1020.42
2023-09-18T00:22:35.322Z,1020.43
2023-09-18T00:25:02.320Z,1020.46
2023-09-18T00:27:29.309Z,1020.47
2023-09-18T00:29:56.795Z,1020.39
2023-09-18T00:32:25.271Z,1020.41
2023-09-18T00:34:52.109Z,1020.38
2023-09-18T00:37:18.873Z,1020.43
2023-09-18T00:39:45.692Z,1020.31
2023-09-18T00:42:12.554Z,1020.22
2023-09-18T00:44:39.357Z,1020.15
2023-09-18T00:47:06.253Z,1020.17
2023-09-18T00:49:34.922Z,1020.08
2023-09-18T00:52:02.854Z,1020.01
2023-09-18T00:54:30.629Z,1019.98
2023-09-18T00:56:58.247Z,1020.08
2023-09-18T00:59:25.063Z,1019.93
2023-09-18T01:01:53.469Z,1019.92
2023-09-18T01:04:20.561Z,1019.85
2023-09-18T01:06:48.739Z,1019.95
2023-09-18T01:09:17.598Z,1019.91
2023-09-18T01:11:52.946Z,1019.99
2023-09-18T01:14:26.401Z,1019.99
2023-09-18T01:16:57.491Z,1019.98
2023-09-18T01:19:39.809Z,1019.91
2023-09-18T01:22:09.839Z,1019.90
2023-09-18T01:24:38.938Z,1019.85
2023-09-18T01:27:08.794Z,1019.94
2023-09-18T01:29:35.828Z,1020.10
2023-09-18T01:32:02.982Z,1019.99
2023-09-18T01:34:33.731Z,1020.10
2023-09-18T01:37:01.505Z,1020.11
2023-09-18T01:39:30.134Z,1020.05
2023-09-18T01:41:58.993Z,1020.00
2023-09-18T01:44:26.171Z,1020.08
2023-09-18T01:46:53.604Z,1020.15
2023-09-18T01:49:28.320Z,1020.14
2023-09-18T01:51:55.208Z,1020.16
2023-09-18T01:54:22.013Z,1020.15
2023-09-18T01:56:48.835Z,1020.12
2023-09-18T01:59:17.029Z,1020.18
2023-09-18T02:01:44.641Z,1020.09
2023-09-18T02:04:19.839Z,1020.01
2023-09-18T02:06:59.274Z,1019.91
2023-09-18T02:09:26.319Z,1019.72
2023-09-18T02:11:53.162Z,1019.66
2023-09-18T02:14:21.450Z,1019.70
2023-09-18T02:16:48.268Z,1019.77
2023-09-18T02:19:15.236Z,1019.59
2023-09-18T02:21:42.214Z,1019.54
2023-09-18T02:24:09.149Z,1019.49
2023-09-18T02:26:36.440Z,1019.52
2023-09-18T02:29:06.472Z,1019.34
2023-09-18T02:31:34.690Z,1019.41
2023-09-18T02:34:01.579Z,1019.64
2023-09-18T02:36:28.413Z,1019.66
2023-09-18T02:38:55.458Z,1019.72
2023-09-18T02:41:22.533Z,1019.63
2023-09-18T02:43:49.343Z,1019.67
2023-09-18T02:46:16.352Z,1019.50
2023-09-18T02:48:44.588Z,1019.41
2023-09-18T02:51:11.429Z,1019.32
2023-09-18T02:53:38.325Z,1019.38
2023-09-18T02:56:05.397Z,1019.45
2023-09-18T02:58:32.295Z,1019.71
2023-09-18T03:00:59.272Z,1019.43
2023-09-18T03:03:26.302Z,1019.39
2023-09-18T03:06:01.003Z,1019.35
2023-09-18T03:08:28.025Z,1019.31
2023-09-18T03:10:54.794Z,1019.37
2023-09-18T03:13:22.982Z,1019.53
2023-09-18T03:15:49.863Z,1019.46
2023-09-18T03:18:16.666Z,1019.35
2023-09-18T03:20:43.569Z,1019.43
2023-09-18T03:23:11.888Z,1019.33
2023-09-18T03:25:49.902Z,1019.30
2023-09-18T03:28:17.901Z,1019.18
2023-09-18T03:30:44.767Z,1019.20
2023-09-18T03:33:11.720Z,1019.19
2023-09-18T03:35:47.923Z,1019.07
2023-09-18T03:38:16.438Z,1019.05
2023-09-18T03:40:43.416Z,1019.01
2023-09-18T03:43:10.646Z,1019.08
2023-09-18T03:45:37.597Z,1019.25
2023-09-18T03:48:04.940Z,1019.36
2023-09-18T03:50:32.004Z,1019.35
2023-09-18T03:52:59.008Z,1019.37
2023-09-18T03:55:27.359Z,1019.12
2023-09-18T03:57:54.176Z,1018.88
2023-09-18T04:00:22.606Z,1018.83
2023-09-18T04:02:49.523Z,1018.83
2023-09-18T04:05:16.515Z,1018.85
2023-09-18T04:07:43.516Z,1018.73
2023-09-18T04:10:10.619Z,1018.70
2023-09-18T04:12:38.777Z,1018.61
2023-09-18T04:15:06.493Z,1018.63
2023-09-18T04:17:33.692Z,1018.97
2023-09-18T04:20:00.501Z,1019.09
2023-09-18T04:22:27.251Z,1018.99
2023-09-18T04:24:53.993Z,1019.00
2023-09-18T04:27:20.813Z,1019.01
2023-09-18T04:29:49.040Z,1019.10
2023-09-18T04:32:15.873Z,1018.90
2023-09-18T04:34:42.868Z,1018.71
2023-09-18T04:37:09.665Z,1018.76
2023-09-18T04:39:36.411Z,1018.92
2023-09-18T04:42:03.495Z,1018.97
2023-09-18T04:44:30.731Z,1018.83
2023-09-18T04:46:58.904Z,1018.67
2023-09-18T04:49:26.489Z,1018.63
2023-09-18T04:51:54.443Z,1018.76
2023-09-18T04:54:21.242Z,1018.72
2023-09-18T04:56:48.009Z,1018.71
2023-09-18T04:59:14.964Z,1018.71
2023-09-18T05:01:41.805Z,1018.75
2023-09-18T05:04:09.962Z,1018.66
2023-09-18T05:06:36.767Z,1018.55
2023-09-18T05:09:03.880Z,1018.52
2023-09-18T05:11:30.749Z,1018.62
2023-09-18T05:13:57.574Z,1018.62
2023-09-18T05:16:24.449Z,1018.63
2023-09-18T05:18:51.691Z,1018.69
2023-09-18T05:21:20.168Z,1018.71
2023-09-18T05:23:47.080Z,1018.72
2023-09-18T05:26:13.962Z,1018.53
2023-09-18T05:28:40.777Z,1018.50
2023-09-18T05:31:07.617Z,1018.33
2023-09-18T05:33:34.441Z,1018.23
2023-09-18T05:36:01.298Z,1018.15
2023-09-18T05:38:29.491Z,1018.07
2023-09-18T05:40:56.326Z,1017.98
2023-09-18T05:43:23.100Z,1018.11
2023-09-18T05:45:49.876Z,1018.18
2023-09-18T05:48:16.829Z,1018.12
2023-09-18T05:50:43.808Z,1017.95
2023-09-18T05:53:10.641Z,1017.84
2023-09-18T05:55:38.951Z,1017.96
2023-09-18T05:58:06.092Z,1017.87
2023-09-18T06:00:33.187Z,1017.85
2023-09-18T06:03:00.613Z,1017.89
2023-09-18T06:05:27.866Z,1017.81
2023-09-18T06:07:54.769Z,1017.66
2023-09-18T06:10:21.628Z,1017.45
2023-09-18T06:12:49.808Z,1017.29
2023-09-18T06:15:16.808Z,1017.24
2023-09-18T06:17:45.268Z,1017.32
2023-09-18T06:20:13.355Z,1017.26
2023-09-18T06:22:41.988Z,1017.31
2023-09-18T06:25:09.648Z,1017.31
2023-09-18T06:27:37.842Z,1017.42
2023-09-18T06:30:07.507Z,1017.31
2023-09-18T06:32:34.603Z,1017.16
2023-09-18T06:35:01.776Z,1017.21
2023-09-18T06:37:28.946Z,1017.13
2023-09-18T06:39:56.421Z,1016.97
2023-09-18T06:42:23.680Z,1016.90
2023-09-18T06:44:50.566Z,1016.93
2023-09-18T06:47:18.790Z,1016.99
2023-09-18T06:49:45.640Z,1017.09
2023-09-18T06:52:12.595Z,1017.13
2023-09-18T06:54:39.396Z,1017.14
2023-09-18T06:57:06.320Z,1017.11
2023-09-18T06:59:43.229Z,1016.84
2023-09-18T07:02:10.236Z,1016.84
2023-09-18T07:04:38.489Z,1016.79
2023-09-18T07:07:05.308Z,1016.75
2023-09-18T07:09:35.103Z,1016.62
2023-09-18T07:12:05.842Z,1016.58
2023-09-18T07:14:32.691Z,1016.46
2023-09-18T07:16:59.461Z,1016.31
2023-09-18T07:19:26.231Z,1016.32
2023-09-18T07:21:54.427Z,1016.14
2023-09-18T07:24:21.413Z,1016.01
2023-09-18T07:26:49.709Z,1015.79
2023-09-18T07:29:17.593Z,1015.59
2023-09-18T07:31:45.956Z,1015.53
2023-09-18T07:34:14.532Z,1015.45
2023-09-18T07:36:41.768Z,1015.31
2023-09-18T07:39:09.953Z,1015.28
2023-09-18T07:41:36.764Z,1015.29
2023-09-18T07:44:03.711Z,1015.23
2023-09-18T07:46:30.564Z,1015.10
2023-09-18T07:48:57.389Z,1015.09
2023-09-18T07:51:24.236Z,1015.22
2023-09-18T07:53:51.138Z,1015.17
2023-09-18T07:56:19.467Z,1014.95
2023-09-18T07:58:46.289Z,1014.85
2023-09-18T08:01:13.200Z,1014.65
2023-09-18T08:03:41.229Z,1014.61
2023-09-18T08:06:08.102Z,1014.46
2023-09-18T08:08:35.050Z,1014.41
2023-09-18T08:11:08.851Z,1014.32
2023-09-18T08:13:37.153Z,1014.33
2023-09-18T08:16:04.267Z,1014.36
2023-09-18T08:18:31.172Z,1014.18
2023-09-18T08:20:58.087Z,1014.25
2023-09-18T08:23:25.060Z,1014.23
2023-09-18T08:25:51.917Z,1014.09
2023-09-18T08:28:18.717Z,1014.09
2023-09-18T08:30:46.913Z,1014.02
2023-09-18T08:33:13.893Z,1013.97
2023-09-18T08:35:40.896Z,1013.98
2023-09-18T08:38:07.864Z,1013.99
2023-09-18T08:40:35.226Z,1013.95
2023-09-18T08:43:02.699Z,1014.01
2023-09-18T08:45:36.067Z,1013.84
2023-09-18T08:48:05.672Z,1013.90
2023-09-18T08:50:33.908Z,1013.82
2023-09-18T08:53:01.160Z,1013.76
2023-09-18T08:55:29.382Z,1013.72
2023-09-18T08:57:58.058Z,1013.76
2023-09-18T09:00:24.917Z,1013.76
2023-09-18T09:02:51.717Z,1013.77
2023-09-18T09:05:20.119Z,1013.71
2023-09-18T09:07:47.123Z,1013.76
2023-09-18T09:10:13.936Z,1013.83
2023-09-18T09:12:53.734Z,1013.83
2023-09-18T09:15:21.077Z,1013.93
2023-09-18T09:17:48.239Z,1013.95
2023-09-18T09:20:16.586Z,1013.97
2023-09-18T09:22:44.885Z,1014.02
2023-09-18T09:25:25.937Z,1014.09
2023-09-18T09:27:53.349Z,1014.06
2023-09-18T09:30:21.981Z,1014.05
2023-09-18T09:32:49.765Z,1014.07
2023-09-18T09:35:21.431Z,1014.10
2023-09-18T09:37:50.403Z,1014.06
2023-09-18T09:40:17.326Z,1013.97
2023-09-18T09:42:44.463Z,1013.91
2023-09-18T09:45:14.017Z,1013.94
2023-09-18T09:47:40.973Z,1013.96
2023-09-18T09:50:09.242Z,1013.82
2023-09-18T09:52:36.483Z,1013.79
2023-09-18T09:55:21.654Z,1013.66
2023-09-18T09:57:49.393Z,1013.75
2023-09-18T10:00:17.113Z,1013.63
2023-09-18T10:02:44.343Z,1013.64
2023-09-18T10:05:11.267Z,1013.66
2023-09-18T10:07:39.369Z,1013.64
2023-09-18T10:10:09.086Z,1013.39
2023-09-18T10:12:37.320Z,1013.40
2023-09-18T10:15:05.316Z,1013.40
2023-09-18T10:17:34.828Z,1013.17
2023-09-18T10:20:08.326Z,1013.08
2023-09-18T10:22:39.527Z,1013.13
2023-09-18T10:25:15.845Z,1013.04
2023-09-18T10:27:44.014Z,1013.01
2023-09-18T10:30:11.961Z,1013.00
2023-09-18T10:32:40.799Z,1013.17
2023-09-18T10:35:08.490Z,1013.14
2023-09-18T10:37:37.176Z,1013.02
2023-09-18T10:40:06.108Z,1013.02
2023-09-18T10:42:35.309Z,1012.94
2023-09-18T10:45:02.884Z,1012.79
2023-09-18T10:47:30.013Z,1012.69
2023-09-18T10:49:56.889Z,1012.69
2023-09-18T10:52:23.835Z,1012.55
2023-09-18T10:54:50.732Z,1012.47
2023-09-18T10:57:17.682Z,1012.56
2023-09-18T10:59:47.062Z,1012.54
2023-09-18T11:02:15.742Z,1012.70
2023-09-18T11:04:43.253Z,1012.66
2023-09-18T11:07:10.128Z,1012.68
2023-09-18T11:09:45.122Z,1012.68
2023-09-18T11:12:13.089Z,1012.71
2023-09-18T11:14:44.760Z,1012.75
2023-09-18T11:17:32.170Z,1012.69
2023-09-18T11:20:18.049Z,1012.77
2023-09-18T11:22:48.609Z,1012.77
2023-09-18T11:25:36.159Z,1012.71
2023-09-18T11:28:03.847Z,1012.65
2023-09-18T11:30:30.900Z,1012.69
2023-09-18T11:32:59.422Z,1012.52
2023-09-18T11:35:26.826Z,1012.48
2023-09-18T11:38:11.815Z,1012.57
2023-09-18T11:40:40.358Z,1012.50
2023-09-18T11:43:25.091Z,1012.46
2023-09-18T11:45:53.575Z,1012.29
2023-09-18T11:48:23.175Z,1012.22
2023-09-18T11:50:50.232Z,1012.06
2023-09-18T11:53:17.372Z,1011.89
2023-09-18T11:55:44.262Z,1011.97
2023-09-18T11:58:11.093Z,1011.91
2023-09-18T12:00:37.954Z,1011.82
2023-09-18T12:03:15.284Z,1011.76
2023-09-18T12:05:44.286Z,1011.64
2023-09-18T12:08:12.584Z,1011.75
2023-09-18T12:10:39.541Z,1011.49
2023-09-18T12:13:07.408Z,1011.53
2023-09-18T12:15:34.335Z,1011.51
2023-09-18T12:18:06.641Z,1011.63
2023-09-18T12:20:33.506Z,1011.78
2023-09-18T12:23:01.676Z,1011.82
2023-09-18T12:25:28.734Z,1011.74
2023-09-18T12:27:56.156Z,1011.82
2023-09-18T12:30:24.732Z,1011.93
2023-09-18T12:32:52.641Z,1011.83
2023-09-18T12:35:20.019Z,1011.84
2023-09-18T12:37:47.082Z,1011.76
2023-09-18T12:40:26.207Z,1011.80
2023-09-18T12:42:54.909Z,1011.91
2023-09-18T12:45:21.977Z,1011.90
2023-09-18T12:47:49.191Z,1011.97
2023-09-18T12:50:16.144Z,1012.02
2023-09-18T12:52:43.138Z,1011.97
2023-09-18T12:55:21.135Z,1011.98
2023-09-18T12:57:49.566Z,1011.80
2023-09-18T13:00:17.751Z,1011.84
2023-09-18T13:02:46.191Z,1011.78
2023-09-18T13:05:13.444Z,1011.54
2023-09-18T13:07:45.475Z,1011.61
2023-09-18T13:10:12.383Z,1011.69
2023-09-18T13:12:43.378Z,1011.72
2023-09-18T13:15:11.674Z,1011.54
2023-09-18T13:17:42.382Z,1011.70
2023-09-18T13:20:14.237Z,1011.77
2023-09-18T13:22:41.523Z,1011.92
2023-09-18T13:25:10.137Z,1011.92
2023-09-18T13:27:36.988Z,1011.90
2023-09-18T13:30:05.050Z,1011.87
2023-09-18T13:32:34.401Z,1011.96
2023-09-18T13:35:01.221Z,1011.95
2023-09-18T13:37:28.041Z,1011.89
2023-09-18T13:39:54.814Z,1011.80
2023-09-18T13:42:21.678Z,1011.87
2023-09-18T13:44:48.542Z,1011.93
2023-09-18T13:47:15.542Z,1011.81
2023-09-18T13:49:43.688Z,1011.79
2023-09-18T13:52:10.571Z,1011.91
2023-09-18T13:54:37.465Z,1011.92
2023-09-18T13:57:04.971Z,1011.92
2023-09-18T13:59:31.876Z,1011.81
2023-09-18T14:01:58.696Z,1011.69
2023-09-18T14:04:25.621Z,1011.79
2023-09-18T14:06:53.791Z,1011.74
2023-09-18T14:09:20.577Z,1011.78
2023-09-18T14:11:47.409Z,1011.91
2023-09-18T14:14:14.305Z,1011.93
2023-09-18T14:16:41.274Z,1011.99
2023-09-18T14:19:08.180Z,1012.10
2023-09-18T14:21:35.097Z,1012.19
2023-09-18T14:24:03.607Z,1012.21
2023-09-18T14:26:30.514Z,1012.24
2023-09-18T14:28:57.396Z,1012.22
2023-09-18T14:31:24.437Z,1012.17
2023-09-18T14:33:51.428Z,1012.12
2023-09-18T14:36:18.272Z,1012.17
2023-09-18T14:38:45.056Z,1012.20
2023-09-18T14:41:13.271Z,1012.17
2023-09-18T14:43:40.123Z,1012.25
2023-09-18T14:46:07.880Z,1012.09
2023-09-18T14:48:35.338Z,1012.18
2023-09-18T14:51:02.357Z,1012.08
2023-09-18T14:53:29.230Z,1011.99
2023-09-18T14:55:56.153Z,1012.27
2023-09-18T14:58:24.299Z,1012.22
2023-09-18T15:00:51.468Z,1012.14
2023-09-18T15:03:18.433Z,1012.20
2023-09-18T15:05:45.551Z,1012.28
2023-09-18T15:08:12.769Z,1012.25
2023-09-18T15:10:39.792Z,1012.25
2023-09-18T15:13:06.638Z,1012.13
2023-09-18T15:15:34.829Z,1012.29
2023-09-18T15:18:01.746Z,1012.28
2023-09-18T15:20:28.827Z,1012.33
2023-09-18T15:22:55.733Z,1012.39
2023-09-18T15:25:22.981Z,1012.50
2023-09-18T15:27:49.782Z,1012.54
2023-09-18T15:30:16.785Z,1012.47
2023-09-18T15:32:50.424Z,1012.57
2023-09-18T15:35:17.571Z,1012.71
2023-09-18T15:37:44.475Z,1012.73
2023-09-18T15:40:12.692Z,1012.87
2023-09-18T15:42:39.811Z,1012.88
2023-09-18T15:45:08.878Z,1013.00
2023-09-18T15:47:35.926Z,1012.84
2023-09-18T15:50:05.159Z,1012.78
2023-09-18T15:52:32.055Z,1012.79
2023-09-18T15:54:59.014Z,1012.73
2023-09-18T15:57:25.949Z,1012.80
2023-09-18T15:59:52.886Z,1012.69
2023-09-18T16:02:19.831Z,1012.73
2023-09-18T16:04:46.790Z,1012.80
2023-09-18T16:07:15.096Z,1012.75
2023-09-18T16:09:42.007Z,1012.81
2023-09-18T16:12:08.970Z,1012.79
2023-09-18T16:14:35.992Z,1012.75
2023-09-18T16:17:02.992Z,1012.75
2023-09-18T16:19:29.802Z,1012.61
2023-09-18T16:21:56.648Z,1012.54
2023-09-18T16:24:25.002Z,1012.58
2023-09-18T16:26:52.233Z,1012.53
2023-09-18T16:29:19.070Z,1012.62
2023-09-18T16:31:45.933Z,1012.63
2023-09-18T16:34:12.798Z,1012.52
2023-09-18T16:36:39.659Z,1012.57
2023-09-18T16:39:06.755Z,1012.58
2023-09-18T16:41:35.043Z,1012.59
2023-09-18T16:44:02.652Z,1012.45
2023-09-18T16:46:29.510Z,1012.41
2023-09-18T16:48:57.602Z,1012.41
2023-09-18T16:51:24.884Z,1012.49
2023-09-18T16:53:51.796Z,1012.28
2023-09-18T16:56:18.650Z,1012.36
2023-09-18T16:58:46.962Z,1012.38
2023-09-18T17:01:14.016Z,1012.53
2023-09-18T17:03:41.158Z,1012.68
2023-09-18T17:06:08.323Z,1012.76
2023-09-18T17:08:35.280Z,1012.75
2023-09-18T17:11:02.115Z,1012.73
2023-09-18T17:13:28.904Z,1012.83
2023-09-18T17:15:57.294Z,1012.79
2023-09-18T17:18:24.151Z,1012.84
2023-09-18T17:20:50.943Z,1012.89
2023-09-18T17:23:17.921Z,1013.00
2023-09-18T17:25:45.018Z,1013.02
2023-09-18T17:28:14.520Z,1013.04
2023-09-18T17:30:41.445Z,1013.10
2023-09-18T17:33:09.674Z,1013.09
2023-09-18T17:35:39.081Z,1013.04
2023-09-18T17:38:08.516Z,1012.98
2023-09-18T17:40:35.418Z,1012.98
2023-09-18T17:43:02.329Z,1012.97
2023-09-18T17:45:29.168Z,1012.89
2023-09-18T17:47:56.034Z,1012.83
2023-09-18T17:50:24.322Z,1012.93
2023-09-18T17:52:51.153Z,1012.95
2023-09-18T17:55:18.188Z,1013.08
2023-09-18T17:57:44.960Z,1013.06
2023-09-18T18:00:13.022Z,1013.07
2023-09-18T18:02:40.669Z,1013.06
2023-09-18T18:05:08.756Z,1013.10
2023-09-18T18:07:37.162Z,1013.19
2023-09-18T18:10:04.258Z,1013.07
2023-09-18T18:12:31.104Z,1013.07
2023-09-18T18:14:58.023Z,1013.06
2023-09-18T18:17:24.874Z,1012.97
2023-09-18T18:19:51.818Z,1012.99
2023-09-18T18:22:18.683Z,1012.94
2023-09-18T18:24:46.913Z,1012.91
2023-09-18T18:27:13.696Z,1012.93
2023-09-18T18:29:40.628Z,1012.96
2023-09-18T18:32:07.482Z,1013.01
2023-09-18T18:34:36.195Z,1013.19
2023-09-18T18:37:03.203Z,1013.27
2023-09-18T18:39:29.980Z,1013.48
2023-09-18T18:41:58.332Z,1013.56
2023-09-18T18:44:25.171Z,1013.67
2023-09-18T18:46:52.034Z,1013.68
2023-09-18T18:49:18.807Z,1013.83
2023-09-18T18:51:45.603Z,1013.77
2023-09-18T18:54:12.616Z,1013.80
2023-09-18T18:56:39.428Z,1013.90
2023-09-18T18:59:07.707Z,1014.05
2023-09-18T19:01:34.517Z,1014.02
2023-09-18T19:04:02.701Z,1014.15
2023-09-18T19:06:29.516Z,1014.12
2023-09-18T19:08:56.388Z,1014.18
2023-09-18T19:11:23.230Z,1014.16
2023-09-18T19:13:50.054Z,1014.04
2023-09-18T19:16:18.303Z,1014.18
2023-09-18T19:18:45.151Z,1014.18
2023-09-18T19:21:12.196Z,1014.09
2023-09-18T19:23:39.649Z,1014.14
2023-09-18T19:26:06.625Z,1014.07
2023-09-18T19:28:33.518Z,1014.17
2023-09-18T19:31:00.498Z,1014.04
2023-09-18T19:33:28.958Z,1014.00
2023-09-18T19:35:56.192Z,1013.97
2023-09-18T19:38:23.211Z,1013.97
2023-09-18T19:40:51.783Z,1014.01
2023-09-18T19:43:19.069Z,1014.01
2023-09-18T19:45:46.021Z,1014.07
2023-09-18T19:48:12.923Z,1014.11
2023-09-18T19:50:41.258Z,1014.21
2023-09-18T19:53:09.268Z,1014.17
2023-09-18T19:55:36.196Z,1014.33
2023-09-18T19:58:03.296Z,1014.33
2023-09-18T20:00:30.376Z,1014.50
2023-09-18T20:02:57.545Z,1014.43
2023-09-18T20:05:25.259Z,1014.56
2023-09-18T20:07:53.669Z,1014.57
2023-09-18T20:10:20.543Z,1014.45
2023-09-18T20:12:49.379Z,1014.60
2023-09-18T20:15:17.076Z,1014.66
2023-09-18T20:17:44.726Z,1014.63
2023-09-18T20:20:12.249Z,1014.61
2023-09-18T20:22:39.950Z,1014.62
2023-09-18T20:25:09.861Z,1014.61
2023-09-18T20:27:37.009Z,1014.61
2023-09-18T20:30:04.442Z,1014.61
2023-09-18T20:32:31.347Z,1014.68
2023-09-18T20:34:58.196Z,1014.65
2023-09-18T20:37:25.193Z,1014.51
2023-09-18T20:39:53.441Z,1014.48
2023-09-18T20:42:21.989Z,1014.38
2023-09-18T20:44:48.792Z,1014.41
2023-09-18T20:47:15.720Z,1014.43
2023-09-18T20:49:42.528Z,1014.32
2023-09-18T20:52:09.349Z,1014.43
2023-09-18T20:54:36.232Z,1014.45
2023-09-18T20:57:03.079Z,1014.48
2023-09-18T20:59:31.660Z,1014.45
2023-09-18T21:01:58.579Z,1014.37
2023-09-18T21:04:25.612Z,1014.13
2023-09-18T21:06:52.520Z,1014.25
2023-09-18T21:09:19.294Z,1014.27
2023-09-18T21:11:46.180Z,1014.18
2023-09-18T21:14:13.010Z,1014.15
2023-09-18T21:16:41.209Z,1014.17
2023-09-18T21:19:08.000Z,1014.22
2023-09-18T21:21:34.976Z,1014.06
2023-09-18T21:24:01.831Z,1014.04
2023-09-18T21:26:28.719Z,1013.97
2023-09-18T21:28:55.503Z,1013.95
2023-09-18T21:31:22.492Z,1014.03
2023-09-18T21:33:50.875Z,1014.03
2023-09-18T21:36:19.540Z,1014.02
2023-09-18T21:38:47.507Z,1014.02
2023-09-18T21:41:14.325Z,1014.02
2023-09-18T21:43:41.140Z,1014.01
2023-09-18T21:46:10.671Z,1014.13
2023-09-18T21:48:37.831Z,1014.27
2023-09-18T21:51:06.450Z,1014.36
2023-09-18T21:56:02.938Z,1014.50
2023-09-18T21:58:29.963Z,1014.53
2023-09-18T22:00:57.063Z,1014.39
2023-09-18T22:03:24.170Z,1014.48
2023-09-18T22:05:51.401Z,1014.45
2023-09-18T22:08:20.385Z,1014.40
2023-09-18T22:10:47.508Z,1014.44
2023-09-18T22:13:14.633Z,1014.42
2023-09-18T22:15:41.505Z,1014.40
2023-09-18T22:18:08.491Z,1014.30
2023-09-18T22:20:35.431Z,1014.29
2023-09-18T22:23:02.243Z,1014.31
2023-09-18T22:25:30.726Z,1014.06
2023-09-18T22:27:57.593Z,1014.15
2023-09-18T22:30:24.496Z,1014.08
2023-09-18T22:32:51.379Z,1014.08
2023-09-18T22:35:18.350Z,1014.18
2023-09-18T22:37:45.816Z,1014.16
2023-09-18T22:40:12.373Z,1014.18
2023-09-18T22:43:16.854Z,1014.21
2023-09-18T22:46:20.984Z,1014.26
2023-09-18T22:49:25.465Z,1014.27
2023-09-18T22:52:29.383Z,1014.41
2023-09-18T22:54:58.377Z,1014.39
2023-09-18T22:57:28.652Z,1014.30
2023-09-18T22:59:58.078Z,1014.37
2023-09-18T23:02:27.288Z,1014.41
2023-09-18T23:04:54.629Z,1014.42
2023-09-18T23:07:22.340Z,1014.39
2023-09-18T23:09:49.120Z,1014.31
2023-09-18T23:12:17.288Z,1014.37
2023-09-18T23:14:44.104Z,1014.38
2023-09-18T23:17:11.143Z,1014.30
2023-09-18T23:19:38.025Z,1014.40
2023-09-18T23:22:05.407Z,1014.38
2023-09-18T23:24:32.784Z,1014.48
2023-09-18T23:26:59.737Z,1014.50
2023-09-18T23:29:28.916Z,1014.59
2023-09-18T23:31:55.797Z,1014.57
2023-09-18T23:34:22.753Z,1014.64
2023-09-18T23:36:49.726Z,1014.59
2023-09-18T23:39:16.496Z,1014.74
2023-09-18T23:41:53.192Z,1014.85
2023-09-18T23:44:20.503Z,1014.93
2023-09-18T23:46:48.930Z,1014.84
2023-09-18T23:49:16.058Z,1015.07
2023-09-18T23:51:42.844Z,1015.11
2023-09-18T23:54:09.952Z,1015.17
2023-09-18T23:56:36.941Z,1015.27
2023-09-18T23:59:03.899Z,1015.35
